Time;durP1;ratioP1;P1;durP2;ratioP2;P2;SDS_P1;SDS_P2;PMS_P1;PMS_P2;Temp;Humidity;BMP_temperature;BMP_pressure;BME280_temperature;BME280_humidity;BME280_pressure;Samples;Min_cycle;Max_cycle;Signal;HPM_P1;HPM_P2
2023/03/03 06:02:34;;;;;;;;;73.25;56.00;;;;;4.64;59.08;101966.38;4957164;28;45398;-58
2023/03/03 06:04:59;;;;;;;;;68.50;52.75;;;;;4.63;58.84;101964.63;4958881;28;45378;-57
2023/03/03 06:07:25;;;;;;;;;70.50;54.00;;;;;4.64;59.06;101970.75;4959815;28;45492;-58
2023/03/03 06:09:50;;;;;;;;;74.75;57.00;;;;;4.62;59.38;101962.88;4958615;28;66510;-57
2023/03/03 06:12:16;;;;;;;;;78.25;55.00;;;;;4.63;59.27;101969.91;4959434;28;45528;-58
2023/03/03 06:14:41;;;;;;;;;66.75;54.00;;;;;4.61;59.43;101968.16;4960013;28;45294;-58
2023/03/03 06:17:06;;;;;;;;;76.00;56.25;;;;;4.59;59.46;101968.19;4958784;28;68140;-58
2023/03/03 06:19:32;;;;;;;;;64.50;52.00;;;;;4.57;59.09;101975.19;4959478;28;45827;-58
2023/03/03 06:21:57;;;;;;;;;70.25;53.00;;;;;4.55;60.09;101973.47;4958699;28;45448;-58
2023/03/03 06:24:24;;;;;;;;;71.00;56.25;;;;;4.51;59.54;101975.25;4959828;28;45291;-58
2023/03/03 06:26:50;;;;;;;;;74.75;58.00;;;;;4.52;59.65;101976.13;4959528;28;45183;-58
2023/03/03 06:29:15;;;;;;;;;73.00;56.75;;;;;4.53;59.74;101988.44;4960244;28;45307;-58
2023/03/03 06:31:40;;;;;;;;;68.75;54.25;;;;;4.53;59.54;101988.44;4956862;28;52891;-58
2023/03/03 06:34:06;;;;;;;;;66.00;53.50;;;;;4.52;62.03;101991.94;4955879;28;45638;-58
2023/03/03 06:36:32;;;;;;;;;72.50;53.50;;;;;4.50;61.59;101998.97;4959129;28;45501;-58
2023/03/03 06:38:58;;;;;;;;;69.75;55.00;;;;;4.49;61.42;102005.16;4959376;28;45255;-58
2023/03/03 06:41:23;;;;;;;;;67.50;53.25;;;;;4.42;60.59;101999.00;4958469;28;71220;-58
2023/03/03 06:43:48;;;;;;;;;75.75;53.00;;;;;4.42;61.59;102005.16;4957797;28;70418;-57
2023/03/03 06:46:13;;;;;;;;;76.75;54.50;;;;;4.40;62.32;102008.69;4958385;28;65556;-58
2023/03/03 06:48:39;;;;;;;;;70.00;56.25;;;;;4.36;61.74;102015.72;4957329;28;66445;-57
2023/03/03 06:51:22;;;;;;;;;58.25;41.50;;;;;4.35;62.19;102013.97;4957707;28;46515;-57
2023/03/03 06:53:50;;;;;;;;;72.00;54.75;;;;;4.33;63.65;102018.38;4958901;28;45425;-60
2023/03/03 06:56:16;;;;;;;;;76.75;58.00;;;;;4.32;61.85;102024.53;4957595;28;45512;-58
2023/03/03 06:58:41;;;;;;;;;77.00;57.50;;;;;4.35;61.49;102036.81;4956923;28;61493;-59
2023/03/03 07:01:15;;;;;;;;;75.00;59.75;;;;;4.39;61.84;102038.56;4958286;28;45381;-58
2023/03/03 07:03:41;;;;;;;;;73.25;56.75;;;;;4.43;62.18;102032.38;4957950;28;45425;-58
2023/03/03 07:06:23;;;;;;;;;76.25;58.00;;;;;4.46;61.94;102035.88;4968646;28;45513;-58
2023/03/03 07:08:50;;;;;;;;;71.25;56.50;;;;;4.50;61.75;102039.38;4951699;28;45342;-57
2023/03/03 07:11:18;;;;;;;;;71.25;57.00;;;;;4.55;61.32;102039.34;4958577;28;45597;-58
2023/03/03 07:13:47;;;;;;;;;77.50;60.00;;;;;4.62;61.49;102043.72;4961332;28;45307;-58
2023/03/03 07:16:14;;;;;;;;;75.00;58.50;;;;;4.68;61.24;102045.44;4962561;28;45324;-57
2023/03/03 07:18:46;;;;;;;;;79.00;60.25;;;;;4.68;62.75;102055.97;4960898;28;45472;-57
2023/03/03 07:21:13;;;;;;;;;76.75;59.75;;;;;4.68;62.64;102055.97;4992760;28;46481;-58
2023/03/03 07:23:41;;;;;;;;;80.25;57.25;;;;;4.67;61.35;102046.31;4991567;28;45807;-58
2023/03/03 07:26:31;;;;;;;;;80.00;54.75;;;;;4.67;61.25;102049.84;4962251;28;45318;-58
2023/03/03 07:29:14;;;;;;;;;78.25;57.25;;;;;4.71;61.62;102050.69;4960972;28;45378;-58
2023/03/03 07:31:41;;;;;;;;;79.00;59.75;;;;;4.82;61.25;102058.53;4961282;28;45601;-58
2023/03/03 07:34:37;;;;;;;;;76.25;58.00;;;;;4.96;61.33;102056.69;4961596;28;45381;-57
2023/03/03 07:37:37;;;;;;;;;78.25;59.50;;;;;5.10;61.42;102060.09;4957253;28;45579;-58
2023/03/03 07:40:28;;;;;;;;;77.00;57.50;;;;;5.24;60.28;102070.56;4968846;28;45672;-59
2023/03/03 07:42:53;;;;;;;;;77.25;55.50;;;;;5.34;60.91;102066.09;4960948;28;45516;-58
2023/03/03 07:45:27;;;;;;;;;70.50;55.25;;;;;5.51;60.22;102073.00;4960973;28;45826;-58
2023/03/03 07:48:00;;;;;;;;;73.00;55.75;;;;;5.62;59.96;102086.97;4961535;28;45254;-57
2023/03/03 07:50:25;;;;;;;;;78.50;57.75;;;;;5.67;60.37;102087.81;4993380;28;45588;-58
2023/03/03 07:52:57;;;;;;;;;73.50;58.00;;;;;5.69;59.96;102079.88;4961597;28;46957;-58
2023/03/03 07:55:41;;;;;;;;;74.50;56.00;;;;;5.72;59.67;102086.00;4957549;28;45579;-55
2023/03/03 07:58:15;;;;;;;;;81.00;57.25;;;;;5.82;60.02;102091.22;4992584;28;45389;-57
2023/03/03 08:01:15;;;;;;;;;76.50;57.75;;;;;5.95;59.87;102098.09;4961920;28;45429;-57
2023/03/03 08:03:43;;;;;;;;;73.75;56.25;;;;;6.03;59.49;102090.13;4961900;28;45398;-57
2023/03/03 08:06:28;;;;;;;;;70.00;56.00;;;;;6.09;59.28;102093.59;4961331;28;45424;-57
2023/03/03 08:08:54;;;;;;;;;81.50;58.00;;;;;6.18;58.49;102097.00;4961569;28;45360;-57
2023/03/03 08:11:19;;;;;;;;;77.00;60.25;;;;;6.26;58.87;102097.81;4967140;28;45440;-57
2023/03/03 08:13:45;;;;;;;;;73.00;57.25;;;;;6.35;59.16;102110.03;4962581;28;69970;-57
2023/03/03 08:16:10;;;;;;;;;75.25;57.25;;;;;6.39;58.58;102109.13;4960590;28;71194;-57
2023/03/03 08:18:39;;;;;;;;;73.75;58.75;;;;;6.42;58.34;102102.03;4958511;28;45596;-57
2023/03/03 08:21:14;;;;;;;;;79.50;57.00;;;;;6.47;57.87;102107.25;4959960;28;45712;-57
2023/03/03 08:23:40;;;;;;;;;77.00;60.00;;;;;6.61;57.99;102102.69;4961044;28;46240;-58
2023/03/03 08:26:05;;;;;;;;;118.25;85.25;;;;;6.71;57.72;102113.13;4959925;28;45393;-57
2023/03/03 08:28:30;;;;;;;;;78.50;58.50;;;;;6.71;57.44;102113.13;4965541;28;45635;-57
2023/03/03 08:30:56;;;;;;;;;79.25;59.50;;;;;6.69;57.18;102112.25;4966267;28;62160;-57
2023/03/03 08:33:21;;;;;;;;;74.00;57.50;;;;;6.78;57.31;102112.16;4958868;28;46585;-56
2023/03/03 08:35:47;;;;;;;;;79.75;57.50;;;;;6.93;56.97;102111.06;4954152;28;54121;-57
2023/03/03 08:38:15;;;;;;;;;73.50;57.50;;;;;7.08;56.74;102110.00;4956312;28;45401;-57
2023/03/03 08:40:41;;;;;;;;;70.75;56.25;;;;;7.19;56.01;102118.63;4960823;28;45572;-57
2023/03/03 08:43:06;;;;;;;;;75.75;58.00;;;;;7.24;55.91;102121.22;4943597;28;47085;-58
2023/03/03 08:45:32;;;;;;;;;73.75;57.25;;;;;7.28;55.66;102120.28;4955575;28;45279;-58
2023/03/03 08:47:58;;;;;;;;;69.25;55.50;;;;;7.28;55.68;102123.78;4955529;28;45507;-57
2023/03/03 08:50:24;;;;;;;;;77.50;57.50;;;;;7.25;54.98;102121.19;4955583;28;45484;-57
2023/03/03 08:52:50;;;;;;;;;71.50;50.75;;;;;7.22;55.75;102125.66;4959696;28;45576;-57
2023/03/03 08:55:15;;;;;;;;;72.50;57.00;;;;;7.27;55.12;102129.09;4959815;28;45433;-57
2023/03/03 08:57:40;;;;;;;;;76.00;56.75;;;;;7.28;54.81;102133.50;4958945;28;66358;-58
2023/03/03 09:00:10;;;;;;;;;79.00;61.75;;;;;7.35;55.10;102132.50;4961066;28;45224;-57
2023/03/03 09:02:35;;;;;;;;;84.25;59.50;;;;;7.56;54.58;102127.78;4954961;28;47175;-57
2023/03/03 09:05:00;;;;;;;;;81.75;61.75;;;;;7.77;54.26;102127.44;4959425;28;63968;-57
2023/03/03 09:07:26;;;;;;;;;78.00;58.25;;;;;7.87;53.64;102129.91;4975704;28;45488;-57
2023/03/03 09:09:51;;;;;;;;;73.50;57.50;;;;;7.96;54.06;102121.78;4959647;28;60916;-57
2023/03/03 09:12:19;;;;;;;;;72.50;57.50;;;;;8.18;53.12;102121.41;4956012;28;74106;-57
2023/03/03 09:14:45;;;;;;;;;81.75;60.50;;;;;8.39;52.56;102120.13;4939336;28;45461;-57
2023/03/03 09:17:32;;;;;;;;;83.75;57.25;;;;;8.61;52.57;102121.44;4954628;28;60425;-57
2023/03/03 09:20:09;;;;;;;;;81.50;64.25;;;;;8.82;52.34;102121.03;4985551;28;45470;-57
2023/03/03 09:22:36;;;;;;;;;78.50;58.25;;;;;8.98;51.62;102125.09;4987855;28;45407;-54
2023/03/03 09:25:02;;;;;;;;;77.00;58.75;;;;;9.05;51.79;102129.38;4956809;28;64375;-57
2023/03/03 09:27:30;;;;;;;;;71.75;54.75;;;;;9.11;51.67;102133.66;4942292;28;45438;-57
2023/03/03 09:30:20;;;;;;;;;67.50;53.25;;;;;9.22;51.22;102136.94;4959128;28;45381;-57
2023/03/03 09:32:45;;;;;;;;;70.75;55.00;;;;;9.27;51.14;102131.53;4959386;28;47458;-58
2023/03/03 09:35:35;;;;;;;;;72.00;55.50;;;;;9.19;50.18;102131.72;4958439;28;68824;-56
2023/03/03 09:38:01;;;;;;;;;71.25;53.25;;;;;9.24;50.41;102129.84;4967213;28;45450;-58
2023/03/03 09:40:54;;;;;;;;;68.25;52.25;;;;;9.90;50.50;102126.44;4964133;28;45357;-58
2023/03/03 09:43:58;;;;;;;;;128.00;107.50;;;;;11.85;49.31;102132.19;4959934;28;45415;-58
2023/03/03 09:46:29;;;;;;;;;69.75;52.75;;;;;13.84;47.65;102122.88;4954276;28;45332;-58
2023/03/03 09:49:01;;;;;;;;;60.50;47.75;;;;;15.20;41.98;102120.28;4959971;28;45370;-58
2023/03/03 09:52:05;;;;;;;;;66.00;49.00;;;;;16.66;40.87;102115.50;4989052;28;45454;-58
2023/03/03 09:54:48;;;;;;;;;62.50;49.00;;;;;18.26;40.01;102107.22;4960118;28;46170;-58
2023/03/03 09:57:26;;;;;;;;;61.25;48.00;;;;;19.47;34.37;102117.41;4965875;28;45938;-58
2023/03/03 10:00:14;;;;;;;;;69.50;51.75;;;;;20.37;36.12;102110.44;4959567;28;45179;-56
2023/03/03 10:03:00;;;;;;;;;51.50;43.50;;;;;21.25;33.96;102112.19;4960081;28;45448;-57
2023/03/03 10:05:50;;;;;;;;;64.25;49.25;;;;;22.24;31.51;102110.06;4959790;28;45530;-57
2023/03/03 10:08:18;;;;;;;;;62.00;47.00;;;;;22.86;30.36;102106.03;4958709;28;45206;-56
2023/03/03 10:11:05;;;;;;;;;61.75;45.75;;;;;23.46;31.31;102105.63;4958743;28;45518;-57
2023/03/03 10:14:01;;;;;;;;;52.00;41.50;;;;;24.06;30.08;102115.97;4960587;28;45492;-58
2023/03/03 10:16:57;;;;;;;;;58.75;43.25;;;;;24.61;29.75;102118.38;4962848;28;45548;-57
2023/03/03 10:19:38;;;;;;;;;55.25;44.75;;;;;25.10;29.68;102126.72;4959013;28;45533;-57
2023/03/03 10:22:16;;;;;;;;;58.75;46.25;;;;;25.79;28.74;102127.63;4959584;28;45406;-57
2023/03/03 10:25:15;;;;;;;;;57.25;46.75;;;;;26.46;27.39;102132.22;4958531;28;45455;-59
2023/03/03 10:27:43;;;;;;;;;60.00;46.75;;;;;26.94;26.74;102131.16;4959496;28;46150;-58
2023/03/03 10:30:38;;;;;;;;;48.00;40.75;;;;;27.10;26.61;102132.34;4959516;28;45395;-57
2023/03/03 10:33:14;;;;;;;;;56.75;44.25;;;;;27.00;26.13;102122.38;4940912;28;45488;-57
2023/03/03 10:35:46;;;;;;;;;53.50;43.00;;;;;27.11;25.93;102134.94;4973670;28;45552;-57
2023/03/03 10:38:26;;;;;;;;;55.75;41.75;;;;;26.95;25.18;102132.00;4959250;28;45440;-57
2023/03/03 10:40:51;;;;;;;;;51.75;40.00;;;;;27.23;24.73;102130.97;4959062;28;45330;-57
2023/03/03 10:43:46;;;;;;;;;55.33;44.33;;;;;27.41;21.39;102132.88;4959633;28;45449;-57
2023/03/03 10:46:33;;;;;;;;;52.25;42.75;;;;;27.36;24.09;102127.84;4979476;28;45487;-57
2023/03/03 10:49:21;;;;;;;;;60.67;42.00;;;;;27.19;22.66;102136.88;4971174;28;46368;-57
2023/03/03 10:52:11;;;;;;;;;46.33;36.67;;;;;27.20;22.60;102133.16;4960158;28;45196;-57
2023/03/03 10:54:36;;;;;;;;;48.67;41.00;;;;;27.12;22.89;102139.38;4931297;28;45394;-58
2023/03/03 10:57:12;;;;;;;;;47.67;38.67;;;;;27.00;23.39;102132.41;4957911;28;45401;-57
2023/03/03 10:59:56;;;;;;;;;50.33;40.33;;;;;27.30;21.42;102135.78;4994281;28;45373;-57
2023/03/03 11:02:31;;;;;;;;;45.00;38.33;;;;;27.64;22.80;102137.84;4962502;28;45770;-57
2023/03/03 11:05:10;;;;;;;;;44.33;35.67;;;;;27.83;22.90;102134.09;4960664;28;45460;-57
2023/03/03 11:07:43;;;;;;;;;51.67;40.00;;;;;28.22;21.76;102140.06;4962496;28;45611;-57
2023/03/03 11:10:47;;;;;;;;;51.00;41.00;;;;;28.10;21.55;102143.22;4962494;28;46404;-59
2023/03/03 11:13:47;;;;;;;;;48.67;37.00;;;;;27.90;21.71;102133.28;4966480;28;45498;-58
2023/03/03 11:16:20;;;;;;;;;44.33;37.00;;;;;28.12;21.76;102131.09;4957343;28;45317;-59
2023/03/03 11:19:10;;;;;;;;;44.67;37.33;;;;;28.34;21.30;102128.81;4972652;28;45385;-58
2023/03/03 11:22:02;;;;;;;;;49.33;39.33;;;;;28.62;21.05;102121.28;4961417;28;45449;-59
2023/03/03 11:24:33;;;;;;;;;48.67;36.67;;;;;28.62;20.69;102124.00;4963281;28;45568;-59
2023/03/03 11:26:58;;;;;;;;;47.67;38.00;;;;;28.50;20.47;102125.31;4960136;28;45450;-57
2023/03/03 11:29:39;;;;;;;;;44.00;36.67;;;;;28.51;20.90;102127.03;4961890;28;45424;-57
2023/03/03 11:32:19;;;;;;;;;45.00;38.67;;;;;28.80;20.12;102126.69;4961393;28;45583;-57
2023/03/03 11:35:28;;;;;;;;;49.33;38.00;;;;;29.02;20.48;102119.72;4956247;28;45769;-58
2023/03/03 11:37:58;;;;;;;;;46.00;36.67;;;;;28.72;19.27;102115.69;4962163;28;45521;-57
2023/03/03 11:40:46;;;;;;;;;48.67;38.00;;;;;28.69;20.61;102113.28;4959990;28;45377;-57
2023/03/03 11:43:36;;;;;;;;;44.33;36.67;;;;;29.03;20.10;102109.63;4955512;28;45528;-57
2023/03/03 11:46:06;;;;;;;;;46.00;34.33;;;;;29.30;20.08;102111.25;4947510;28;45575;-58
2023/03/03 11:48:41;;;;;;;;;42.33;33.33;;;;;29.71;19.53;102110.38;4992917;28;46047;-58
2023/03/03 11:51:17;;;;;;;;;41.67;34.00;;;;;30.01;19.77;102105.25;4958066;28;45587;-58
2023/03/03 11:54:01;;;;;;;;;36.67;31.67;;;;;30.15;18.05;102107.25;4948626;28;46413;-58
2023/03/03 11:56:33;;;;;;;;;40.00;33.00;;;;;30.00;17.60;102103.56;4951178;28;45722;-59
2023/03/03 11:59:01;;;;;;;;;38.00;34.33;;;;;29.84;19.14;102099.78;4958406;28;45385;-58
2023/03/03 12:01:51;;;;;;;;;39.00;32.67;;;;;29.89;17.06;102098.41;4960128;28;45821;-58
2023/03/03 12:04:26;;;;;;;;;39.33;35.33;;;;;29.72;17.79;102095.66;4957529;28;46517;-58
2023/03/03 12:07:02;;;;;;;;;31.00;27.67;;;;;29.32;17.50;102094.63;4959340;28;45215;-60
2023/03/03 12:09:34;;;;;;;;;35.00;31.67;;;;;28.99;18.72;102094.56;4960629;28;45581;-58
2023/03/03 12:12:11;;;;;;;;;36.33;32.00;;;;;28.73;18.23;102089.19;4953210;28;45580;-59
2023/03/03 12:14:53;;;;;;;;;38.00;32.00;;;;;28.96;19.31;102086.69;4955204;28;46541;-65
2023/03/03 12:17:47;;;;;;;;;36.33;30.33;;;;;29.38;18.35;102080.25;4953155;28;45512;-68
2023/03/03 12:20:31;;;;;;;;;32.33;30.33;;;;;29.42;17.42;102095.31;4958856;28;45647;-71
2023/03/03 12:23:15;;;;;;;;;31.00;27.00;;;;;29.01;18.60;102085.16;4956416;28;45564;-57
2023/03/03 12:25:53;;;;;;;;;34.33;30.67;;;;;28.93;18.03;102092.47;4959902;28;46348;-58
2023/03/03 12:28:25;;;;;;;;;29.67;27.67;;;;;28.38;19.46;102094.63;4959149;28;45512;-58
2023/03/03 12:31:02;;;;;;;;;35.33;29.00;;;;;28.27;19.23;102084.00;4981277;28;45519;-57
2023/03/03 12:34:04;;;;;;;;;26.00;24.00;;;;;27.93;19.31;102080.19;4956620;28;45757;-59
2023/03/03 12:37:11;;;;;;;;;26.33;24.00;;;;;27.84;20.00;102084.72;4959875;28;45496;-58
2023/03/03 12:39:51;;;;;;;;;28.00;27.00;;;;;27.44;19.55;102072.47;4960852;28;45373;-66
2023/03/03 12:42:23;;;;;;;;;34.00;29.00;;;;;27.24;19.80;102075.31;4956242;28;45537;-60
2023/03/03 12:45:00;;;;;;;;;28.67;23.67;;;;;26.94;20.39;102071.13;4960427;28;45439;-59
2023/03/03 12:47:39;;;;;;;;;31.33;27.00;;;;;25.99;19.53;102073.94;4954991;28;45856;-70
2023/03/03 12:50:23;;;;;;;;;22.67;19.00;;;;;24.30;20.60;102079.47;4961472;28;45266;-65
2023/03/03 12:53:00;;;;;;;;;27.33;25.33;;;;;23.28;22.35;102092.63;4948060;28;45332;-62
2023/03/03 12:56:11;;;;;;;;;21.67;20.67;;;;;22.54;23.36;102081.53;4959061;28;45357;-68
2023/03/03 12:59:01;;;;;;;;;28.00;25.00;;;;;21.55;23.64;102075.69;4985394;28;45416;-61
2023/03/03 13:02:12;;;;;;;;;32.33;25.33;;;;;20.54;24.38;102083.06;4959599;28;45461;-61
2023/03/03 13:04:50;;;;;;;;;33.67;30.00;;;;;19.49;24.75;102090.34;4955306;28;45483;-60
2023/03/03 13:07:40;;;;;;;;;25.33;23.67;;;;;18.73;26.93;102078.22;4958373;28;45697;-62
2023/03/03 13:10:06;;;;;;;;;23.67;23.67;;;;;18.40;28.06;102076.72;4990238;28;45633;-62
2023/03/03 13:12:37;;;;;;;;;27.67;19.67;;;;;18.25;30.28;102075.84;4959419;28;45488;-61
2023/03/03 13:15:11;;;;;;;;;26.67;24.33;;;;;18.05;31.59;102077.97;4978130;28;45842;-60
2023/03/03 13:17:55;;;;;;;;;28.67;25.00;;;;;17.83;28.65;102073.88;4959193;28;45387;-66
2023/03/03 13:20:29;;;;;;;;;33.67;27.33;;;;;17.69;28.17;102065.75;4959494;28;46581;-66
2023/03/03 13:23:03;;;;;;;;;34.00;26.33;;;;;17.39;28.42;102063.06;4963669;28;45858;-66
2023/03/03 13:25:46;;;;;;;;;29.33;27.00;;;;;16.96;28.63;102070.00;4986503;28;45598;-66
2023/03/03 13:28:34;;;;;;;;;29.00;25.33;;;;;16.61;29.49;102070.13;4958031;28;45442;-66
2023/03/03 13:31:20;;;;;;;;;30.00;25.67;;;;;16.17;29.60;102068.03;4952012;28;45377;-66
2023/03/03 13:33:54;;;;;;;;;36.00;30.33;;;;;15.93;29.43;102054.09;4950641;28;45383;-66
2023/03/03 13:36:25;;;;;;;;;28.67;27.33;;;;;15.89;30.31;102058.75;4953145;28;45637;-65
2023/03/03 13:38:53;;;;;;;;;30.67;25.67;;;;;15.93;30.32;102057.69;4957294;28;45852;-66
2023/03/03 13:41:33;;;;;;;;;24.67;21.00;;;;;15.85;30.65;102065.25;4990101;28;45498;-66
2023/03/03 13:44:01;;;;;;;;;29.33;29.00;;;;;15.68;31.49;102069.66;4958548;28;45509;-65
2023/03/03 13:46:44;;;;;;;;;29.33;21.33;;;;;15.51;30.67;102057.09;4940517;28;45595;-65
2023/03/03 13:49:31;;;;;;;;;28.67;26.33;;;;;15.29;31.32;102060.00;4959178;28;45406;-65
2023/03/03 13:52:04;;;;;;;;;30.67;26.00;;;;;15.14;31.48;102068.81;4957881;28;45536;-65
2023/03/03 13:54:56;;;;;;;;;27.33;22.33;;;;;14.92;31.24;102063.63;4957158;28;45588;-65
2023/03/03 13:57:40;;;;;;;;;29.67;23.33;;;;;14.65;31.97;102062.19;4957603;28;45393;-65
2023/03/03 14:00:12;;;;;;;;;26.33;23.33;;;;;14.49;32.46;102058.47;4959086;28;45411;-65
2023/03/03 14:02:37;;;;;;;;;34.33;26.67;;;;;14.29;32.85;102057.56;4957576;28;45601;-65
2023/03/03 14:05:12;;;;;;;;;28.00;23.67;;;;;14.18;32.75;102062.53;4957978;28;45660;-65
2023/03/03 14:07:44;;;;;;;;;32.00;30.33;;;;;14.13;32.67;102057.41;4955121;28;45229;-65
2023/03/03 14:11:03;;;;;;;;;35.67;31.67;;;;;14.13;33.36;102059.19;4972909;28;45310;-65
2023/03/03 14:13:34;;;;;;;;;36.33;30.67;;;;;14.04;33.43;102063.16;4937090;28;46707;-66
2023/03/03 14:16:14;;;;;;;;;32.67;28.00;;;;;13.93;34.37;102060.09;4958031;28;45511;-65
2023/03/03 14:18:54;;;;;;;;;36.67;31.00;;;;;13.77;33.74;102059.91;4940571;28;45386;-65
2023/03/03 14:21:28;;;;;;;;;27.00;25.00;;;;;13.71;33.75;102061.91;4942434;28;45494;-65
2023/03/03 14:23:58;;;;;;;;;29.67;27.00;;;;;13.65;33.72;102059.50;4957672;28;47490;-65
2023/03/03 14:26:24;;;;;;;;;36.00;31.33;;;;;13.57;34.36;102058.94;4958479;28;45390;-64
2023/03/03 14:28:51;;;;;;;;;32.00;29.67;;;;;13.53;33.98;102060.00;4957195;28;45500;-65
2023/03/03 14:31:29;;;;;;;;;34.00;30.33;;;;;13.47;34.76;102055.81;4958726;28;45299;-64
2023/03/03 14:34:23;;;;;;;;;34.67;27.67;;;;;13.48;34.60;102054.00;4956404;28;45935;-64
2023/03/03 14:36:57;;;;;;;;;41.50;32.25;;;;;13.51;34.77;102053.88;4953358;28;45515;-64
2023/03/03 14:39:33;;;;;;;;;41.75;34.50;;;;;13.50;35.54;102055.66;4963521;28;45861;-64
2023/03/03 14:41:59;;;;;;;;;38.33;31.33;;;;;13.46;35.05;102050.53;4957312;28;45600;-64
2023/03/03 14:44:32;;;;;;;;;39.00;33.00;;;;;13.47;35.09;102047.78;4960627;28;45607;-64
2023/03/03 14:47:22;;;;;;;;;24.67;24.67;;;;;13.47;35.17;102049.59;4957282;28;45453;-64
2023/03/03 14:49:49;;;;;;;;;27.67;25.33;;;;;13.32;35.57;102056.41;4957553;28;46979;-64
2023/03/03 14:52:14;;;;;;;;;40.00;31.00;;;;;13.22;35.08;102047.94;4958799;28;45456;-65
2023/03/03 14:54:45;;;;;;;;;27.33;24.67;;;;;13.13;35.29;102042.94;4956566;28;47099;-64
2023/03/03 14:57:24;;;;;;;;;37.33;31.00;;;;;13.08;35.22;102043.13;4940906;28;45661;-64
2023/03/03 14:59:57;;;;;;;;;39.67;31.67;;;;;13.02;35.42;102043.38;4956391;28;45683;-64
2023/03/03 15:02:27;;;;;;;;;40.50;34.00;;;;;12.96;36.70;102040.94;4959765;28;45563;-64
2023/03/03 15:05:11;;;;;;;;;33.00;31.00;;;;;12.90;35.21;102036.72;4941195;28;47033;-64
2023/03/03 15:07:37;;;;;;;;;36.75;32.25;;;;;12.83;35.69;102038.78;4954369;28;45366;-64
2023/03/03 15:10:06;;;;;;;;;36.50;32.25;;;;;12.82;35.94;102045.06;4954797;28;45840;-63
2023/03/03 15:12:31;;;;;;;;;37.25;33.50;;;;;12.80;37.34;102041.59;4957002;28;45334;-64
2023/03/03 15:15:05;;;;;;;;;43.00;34.25;;;;;12.72;37.28;102033.88;4953193;28;45725;-65
2023/03/03 15:17:34;;;;;;;;;38.00;33.50;;;;;12.69;37.03;102041.13;4955327;28;45536;-63
2023/03/03 15:20:33;;;;;;;;;35.50;32.00;;;;;12.61;37.92;102051.25;4953974;28;45347;-65
2023/03/03 15:23:21;;;;;;;;;47.00;37.00;;;;;12.49;37.25;102044.56;4972975;28;45488;-64
2023/03/03 15:25:51;;;;;;;;;41.50;34.25;;;;;12.44;37.87;102049.19;4957881;28;46413;-64
2023/03/03 15:28:54;;;;;;;;;39.50;33.00;;;;;12.31;38.52;102055.00;4958445;28;45310;-64
2023/03/03 15:31:40;;;;;;;;;44.50;35.75;;;;;12.20;37.83;102049.19;4987729;28;45542;-65
2023/03/03 15:34:25;;;;;;;;;39.75;33.00;;;;;12.06;38.28;102052.41;4973377;28;45508;-65
2023/03/03 15:37:25;;;;;;;;;42.25;32.75;;;;;11.93;38.46;102057.25;4988556;28;46432;-65
2023/03/03 15:40:09;;;;;;;;;40.33;31.33;;;;;11.83;38.59;102059.38;4959004;28;45393;-64
2023/03/03 15:42:47;;;;;;;;;28.50;27.25;;;;;11.78;38.63;102064.00;4960922;28;45369;-64
2023/03/03 15:45:30;;;;;;;;;34.67;30.33;;;;;11.70;39.24;102069.59;4960418;28;46334;-64
2023/03/03 15:48:09;;;;;;;;;31.25;29.75;;;;;11.63;38.95;102062.75;4959264;28;45540;-65
2023/03/03 15:50:58;;;;;;;;;35.33;29.00;;;;;11.55;39.05;102068.34;4959831;28;45392;-65
2023/03/03 15:53:33;;;;;;;;;34.75;32.50;;;;;11.51;38.92;102071.13;4959832;28;46689;-64
2023/03/03 15:56:02;;;;;;;;;31.75;28.25;;;;;11.42;39.54;102067.88;4966562;28;45469;-64
2023/03/03 15:58:52;;;;;;;;;35.75;30.25;;;;;11.33;39.46;102064.63;4957501;28;45758;-64
2023/03/03 16:01:25;;;;;;;;;35.25;33.00;;;;;11.25;39.88;102067.53;4951518;28;45500;-63
2023/03/03 16:04:20;;;;;;;;;39.25;33.00;;;;;11.20;39.57;102074.84;4958941;28;45436;-64
2023/03/03 16:06:47;;;;;;;;;38.25;33.00;;;;;11.09;39.39;102072.50;4945002;28;45520;-64
2023/03/03 16:09:36;;;;;;;;;42.75;36.25;;;;;11.03;39.42;102070.91;4981125;28;46706;-64
2023/03/03 16:12:34;;;;;;;;;39.00;34.00;;;;;11.00;39.60;102072.78;4955738;28;45400;-64
2023/03/03 16:15:18;;;;;;;;;36.75;31.00;;;;;10.92;39.76;102075.69;4957590;28;45441;-64
2023/03/03 16:17:49;;;;;;;;;33.50;29.50;;;;;10.85;39.62;102080.34;4957289;28;45455;-64
2023/03/03 16:20:27;;;;;;;;;43.50;36.50;;;;;10.74;40.80;102083.34;4959637;28;45779;-64
2023/03/03 16:23:03;;;;;;;;;42.50;38.00;;;;;10.72;40.60;102082.50;4950647;28;46407;-63
2023/03/03 16:25:53;;;;;;;;;35.75;30.00;;;;;10.65;40.44;102090.72;4957681;28;45409;-63
2023/03/03 16:28:26;;;;;;;;;34.75;33.25;;;;;10.57;40.18;102088.28;4953925;28;45515;-63
2023/03/03 16:31:28;;;;;;;;;35.00;32.75;;;;;10.42;41.14;102086.97;4958655;28;47123;-64
2023/03/03 16:34:19;;;;;;;;;38.50;32.25;;;;;10.39;40.71;102092.34;4958761;28;45292;-64
2023/03/03 16:36:57;;;;;;;;;33.00;28.50;;;;;10.31;41.07;102103.19;4951176;28;45645;-64
2023/03/03 16:39:33;;;;;;;;;31.25;23.00;;;;;10.23;41.40;102105.19;4958202;28;46047;-63
2023/03/03 16:42:02;;;;;;;;;41.25;33.00;;;;;10.17;41.41;102111.53;4957289;28;46069;-63
2023/03/03 16:44:56;;;;;;;;;40.50;32.25;;;;;10.09;41.40;102111.75;4958426;28;45352;-63
2023/03/03 16:47:36;;;;;;;;;33.75;27.50;;;;;10.01;42.15;102124.38;4958996;28;45315;-63
2023/03/03 16:50:16;;;;;;;;;38.50;33.50;;;;;9.92;41.78;102120.19;4959022;28;45916;-63
2023/03/03 16:52:47;;;;;;;;;32.75;27.25;;;;;9.83;42.44;102122.19;4958670;28;47929;-63
2023/03/03 16:55:27;;;;;;;;;43.25;35.75;;;;;9.72;42.40;102133.09;4951912;28;45433;-63
2023/03/03 16:58:01;;;;;;;;;38.00;30.50;;;;;9.64;43.49;102127.13;4955553;28;45325;-64
2023/03/03 17:00:37;;;;;;;;;40.25;35.00;;;;;9.54;42.80;102131.78;4957572;28;45758;-64
2023/03/03 17:03:20;;;;;;;;;37.00;26.75;;;;;9.43;42.77;102132.03;4941487;28;48429;-64
2023/03/03 17:05:56;;;;;;;;;45.25;35.75;;;;;9.33;43.22;102136.69;4955747;28;45412;-63
2023/03/03 17:08:46;;;;;;;;;43.00;34.50;;;;;9.21;44.61;102137.00;4955992;28;45520;-63
2023/03/03 17:11:45;;;;;;;;;39.00;33.75;;;;;9.14;44.08;102140.69;4959114;28;45395;-63
2023/03/03 17:14:11;;;;;;;;;39.50;33.25;;;;;9.00;45.38;102139.22;4952784;28;45583;-63
2023/03/03 17:17:05;;;;;;;;;34.00;31.00;;;;;8.92;44.92;102150.00;4957631;28;45433;-63
2023/03/03 17:19:47;;;;;;;;;39.00;30.50;;;;;8.81;44.51;102159.09;4945239;28;45439;-63
2023/03/03 17:22:32;;;;;;;;;45.00;33.00;;;;;8.70;45.31;102149.56;4939142;28;45396;-63
2023/03/03 17:25:16;;;;;;;;;46.25;36.00;;;;;8.64;45.46;102162.09;4956186;28;47500;-62
2023/03/03 17:27:53;;;;;;;;;47.00;36.00;;;;;8.56;46.18;102171.06;4957440;28;45540;-63
2023/03/03 17:30:47;;;;;;;;;49.50;38.25;;;;;8.47;46.20;102171.25;4957169;28;45583;-63
2023/03/03 17:33:42;;;;;;;;;41.75;33.50;;;;;8.38;46.03;102185.53;4961668;28;45302;-63
2023/03/03 17:36:38;;;;;;;;;41.75;36.00;;;;;8.31;46.67;102188.34;4956379;28;46262;-63
2023/03/03 17:39:39;;;;;;;;;46.50;36.25;;;;;8.22;47.19;102186.72;4953644;28;45336;-62
2023/03/03 17:42:23;;;;;;;;;41.50;34.00;;;;;8.16;47.80;102197.41;4988675;28;45400;-62
2023/03/03 17:45:02;;;;;;;;;47.00;36.00;;;;;8.08;46.67;102203.75;4955552;28;45289;-62
2023/03/03 17:47:54;;;;;;;;;44.25;31.75;;;;;8.05;48.25;102211.72;4941200;28;47294;-63
2023/03/03 17:50:22;;;;;;;;;43.00;29.75;;;;;8.01;48.39;102209.19;4954783;28;45392;-64
2023/03/03 17:53:17;;;;;;;;;47.50;34.50;;;;;7.93;48.65;102214.59;4958716;28;45337;-63
2023/03/03 17:56:12;;;;;;;;;42.25;34.00;;;;;7.90;48.93;102217.28;4955780;28;45421;-62
2023/03/03 17:59:05;;;;;;;;;40.75;33.75;;;;;7.87;47.56;102218.19;4971249;28;48210;-61
2023/03/03 18:01:48;;;;;;;;;45.00;33.25;;;;;7.85;49.31;102221.78;4955646;28;45714;-64